Archival Weather

Chicago O'Hare International

Chicago, Illinois (KORD)

Report from: Wednesday, December 28, 2022 7:51 PM CST
Current time: Friday, June 14, 2024 6:35 AM CDT

Current weather – Weather history – Daily summaries
Weather forecast

Temperature6.7°C (44.1°F)
Wind chill2.0°C (35.7°F)
Dew point1.1°C (34.0°F)
Winds 18 kts (9.3 m/s, 20.7 mph) South (180°)
Wind gusts 34 kts (17.5 m/s, 39.1 mph)
Peak wind 34 kts (17.5 m/s, 39.1 mph) South (190°) at 01:43
Visibility10 mi. (16.1 km)
Clouds Ceiling: Broken clouds 15,000 ft. (4,572 m)
Broken clouds 25,000 ft. (7,620 m)
Overcast 35,000 ft. (10,668 m)
Altimeter29.74 in.Hg (1007 mB)
Relative humidity67 %
Density altitude-710 ft. (-217 m)
Sea-level pressure100.8 kPa (1008 mB, 29.76 in.Hg)
Remarks Automated weather observing station with precipitation discriminator
Flight conditions Visual Meteorological Conditions
Raw dataKORD 290151Z 18018G34KT 10SM BKN150 BKN250 OVC350 07/01 A2974 RMK AO2 PK WND 19034/0143 SLP077 T00670011
An error has occurred. This application may no longer respond until reloaded. Reload 🗙